Time;durP1;ratioP1;P1;durP2;ratioP2;P2;SDS_P1;SDS_P2;PMS_P1;PMS_P2;Temp;Humidity;BMP_temperature;BMP_pressure;BME280_temperature;BME280_humidity;BME280_pressure;Samples;Min_cycle;Max_cycle;Signal;HPM_P1;HPM_P2
2023/05/12 00:00:39;;;;;;;14.52;9.25;;;11.20;99.90;;;;;;5010450;28;20443;-81
2023/05/12 00:03:04;;;;;;;17.42;12.52;;;12.10;99.90;;;;;;5012256;28;20068;-81
2023/05/12 00:05:30;;;;;;;18.05;13.32;;;11.20;99.90;;;;;;4993980;28;20484;-81
2023/05/12 00:07:56;;;;;;;22.92;15.90;;;11.20;99.90;;;;;;4994236;28;20387;-81
2023/05/12 00:10:22;;;;;;;24.63;15.32;;;13.30;99.90;;;;;;5010556;28;20054;-81
2023/05/12 00:12:47;;;;;;;25.17;16.60;;;11.40;99.90;;;;;;5012359;28;20076;-81
2023/05/12 00:15:13;;;;;;;19.30;14.90;;;13.20;99.90;;;;;;5026371;28;20038;-81
2023/05/12 00:17:39;;;;;;;21.58;14.27;;;11.80;99.90;;;;;;4994415;28;20395;-81
2023/05/12 00:20:05;;;;;;;19.55;13.95;;;11.10;99.90;;;;;;4993615;28;20038;-81
2023/05/12 00:22:31;;;;;;;22.25;13.88;;;11.10;99.90;;;;;;5010710;28;20089;-81
2023/05/12 00:24:56;;;;;;;21.23;14.95;;;11.20;99.90;;;;;;5010660;28;20080;-80
2023/05/12 00:27:22;;;;;;;22.02;14.60;;;13.30;99.90;;;;;;5009857;28;20041;-80
2023/05/12 00:29:48;;;;;;;21.25;13.63;;;12.40;99.90;;;;;;4994306;28;20042;-81
2023/05/12 00:32:14;;;;;;;20.23;13.18;;;12.40;99.90;;;;;;5010293;28;20040;-81
2023/05/12 00:34:41;;;;;;;21.83;12.85;;;11.20;99.90;;;;;;4977183;28;20041;-81
2023/05/12 00:37:06;;;;;;;21.92;12.50;;;12.30;99.90;;;;;;5011585;28;20549;-81
2023/05/12 00:39:32;;;;;;;15.05;12.20;;;11.20;99.90;;;;;;5010027;28;20125;-81
2023/05/12 00:41:58;;;;;;;25.80;13.48;;;11.20;99.90;;;;;;4993073;28;20042;-81
2023/05/12 00:44:24;;;;;;;19.88;12.57;;;12.80;99.90;;;;;;5009785;28;20042;-81
2023/05/12 00:46:50;;;;;;;21.75;13.32;;;12.90;99.90;;;;;;4994487;28;20097;-81
2023/05/12 00:49:16;;;;;;;21.92;12.80;;;12.90;99.90;;;;;;5009493;28;20042;-80
2023/05/12 00:51:42;;;;;;;25.98;13.43;;;12.60;99.90;;;;;;5009828;28;20034;-80
2023/05/12 00:54:08;;;;;;;24.08;13.55;;;11.20;99.90;;;;;;5009931;28;20081;-81
2023/05/12 00:56:38;;;;;;;22.05;13.90;;;11.20;99.90;;;;;;4993263;28;20486;-80
2023/05/12 00:59:04;;;;;;;26.52;14.20;;;13.10;99.90;;;;;;5009783;28;20038;-80
2023/05/12 01:01:31;;;;;;;25.40;14.38;;;10.90;99.90;;;;;;5009606;28;20041;-80
2023/05/12 01:03:57;;;;;;;29.02;15.52;;;11.50;99.90;;;;;;5009431;28;20084;-80
2023/05/12 01:06:32;;;;;;;27.38;14.40;;;11.10;99.90;;;;;;4993075;28;20058;-80
2023/05/12 01:08:59;;;;;;;30.02;16.48;;;12.10;99.90;;;;;;4994332;28;20148;-79
2023/05/12 01:11:25;;;;;;;25.30;16.67;;;11.20;99.90;;;;;;5008786;28;20117;-80
2023/05/12 01:13:50;;;;;;;27.92;16.17;;;11.20;99.90;;;;;;5011127;28;20136;-80
2023/05/12 01:16:18;;;;;;;27.75;16.20;;;11.20;99.90;;;;;;5011000;28;20056;-80
2023/05/12 01:18:50;;;;;;;28.25;15.55;;;11.30;99.90;;;;;;4992425;28;20053;-81
2023/05/12 01:21:16;;;;;;;31.58;18.13;;;12.20;99.90;;;;;;5008938;28;20148;-80
2023/05/12 01:24:05;;;;;;;28.88;16.88;;;11.30;99.90;;;;;;4992566;28;20041;-80
2023/05/12 01:26:32;;;;;;;32.63;17.90;;;13.40;99.90;;;;;;5009425;28;20045;-80
2023/05/12 01:29:01;;;;;;;29.20;19.13;;;11.30;99.90;;;;;;5010749;28;20064;-80
2023/05/12 01:31:28;;;;;;;33.92;19.17;;;11.30;99.90;;;;;;5008235;28;20041;-80
2023/05/12 01:33:54;;;;;;;27.10;17.80;;;12.90;99.90;;;;;;4993235;28;20042;-80
2023/05/12 01:36:19;;;;;;;34.90;19.45;;;11.30;99.90;;;;;;5010518;28;20113;-80
2023/05/12 01:38:45;;;;;;;31.13;18.67;;;11.20;99.90;;;;;;4992153;28;20041;-80
2023/05/12 01:41:11;;;;;;;34.72;19.40;;;11.20;99.90;;;;;;5010162;28;20085;-80
2023/05/12 01:43:36;;;;;;;39.05;20.05;;;11.20;99.90;;;;;;5008922;28;20057;-80
2023/05/12 01:46:02;;;;;;;33.17;18.75;;;11.30;99.90;;;;;;4992714;28;20042;-81
2023/05/12 01:48:28;;;;;;;26.90;17.00;;;11.30;99.90;;;;;;5010331;28;20401;-81
2023/05/12 01:50:54;;;;;;;29.63;19.08;;;11.30;99.90;;;;;;5009342;28;20052;-81
2023/05/12 01:53:19;;;;;;;30.30;18.70;;;11.30;99.90;;;;;;4992247;28;20045;-80
2023/05/12 01:55:45;;;;;;;31.98;18.73;;;11.40;99.90;;;;;;5011581;28;20126;-81
2023/05/12 01:58:10;;;;;;;26.23;17.80;;;12.60;99.90;;;;;;5008752;28;20057;-81
2023/05/12 02:00:36;;;;;;;27.77;17.67;;;11.70;99.90;;;;;;4991852;28;20416;-81
2023/05/12 02:03:02;;;;;;;27.73;18.00;;;11.40;99.90;;;;;;5008653;28;20046;-81
2023/05/12 02:05:27;;;;;;;30.33;18.98;;;11.40;99.90;;;;;;5008796;28;20038;-81
2023/05/12 02:07:53;;;;;;;33.95;19.05;;;11.40;99.90;;;;;;4991495;28;20066;-80
2023/05/12 02:10:19;;;;;;;34.25;19.23;;;12.20;99.90;;;;;;4991667;28;20145;-80
2023/05/12 02:12:45;;;;;;;29.45;18.30;;;11.40;99.90;;;;;;4991722;28;20513;-81
2023/05/12 02:15:11;;;;;;;29.55;19.60;;;11.50;99.90;;;;;;4992243;28;20049;-81
2023/05/12 02:17:36;;;;;;;33.95;20.15;;;13.30;99.90;;;;;;5025288;28;20085;-81
2023/05/12 02:20:04;;;;;;;40.90;23.10;;;11.40;99.90;;;;;;4991226;28;20041;-81
2023/05/12 02:22:29;;;;;;;36.38;22.35;;;11.40;99.90;;;;;;4991973;28;20178;-81
2023/05/12 02:24:55;;;;;;;38.25;20.40;;;12.40;99.90;;;;;;5008788;28;20489;-81
2023/05/12 02:27:20;;;;;;;39.97;22.42;;;11.40;99.90;;;;;;4991636;28;20046;-81
2023/05/12 02:29:46;;;;;;;46.20;23.90;;;11.50;99.90;;;;;;5009898;28;20032;-81
2023/05/12 02:32:12;;;;;;;38.08;23.55;;;11.40;99.90;;;;;;5008301;28;20038;-81
2023/05/12 02:34:37;;;;;;;36.58;22.30;;;13.30;99.90;;;;;;5009019;28;20045;-81
2023/05/12 02:37:03;;;;;;;42.22;24.17;;;11.40;99.90;;;;;;5008995;28;20048;-81
2023/05/12 02:39:28;;;;;;;43.08;24.08;;;11.50;99.90;;;;;;5007726;28;20394;-81
2023/05/12 02:41:54;;;;;;;43.78;24.88;;;11.40;99.90;;;;;;4991362;28;20137;-80
2023/05/12 02:44:21;;;;;;;43.03;24.17;;;11.50;99.90;;;;;;4993027;28;20081;-81
2023/05/12 02:46:46;;;;;;;42.95;24.35;;;11.50;99.90;;;;;;5010444;28;20137;-82
2023/05/12 02:49:12;;;;;;;42.15;24.63;;;11.50;99.90;;;;;;4991205;28;20465;-82
2023/05/12 02:51:38;;;;;;;44.08;26.52;;;13.50;99.90;;;;;;4991800;28;20050;-80
2023/05/12 02:54:04;;;;;;;47.75;26.00;;;11.50;99.90;;;;;;5008339;28;20129;-81
2023/05/12 02:56:29;;;;;;;46.42;25.75;;;11.50;99.90;;;;;;5007560;28;20045;-82
2023/05/12 02:58:55;;;;;;;41.60;25.23;;;11.50;99.90;;;;;;5008375;28;20038;-80
2023/05/12 03:01:20;;;;;;;43.58;24.77;;;11.50;99.90;;;;;;5008119;28;20117;-81
2023/05/12 03:03:46;;;;;;;42.85;25.50;;;11.60;99.90;;;;;;4991561;28;20482;-81
2023/05/12 03:06:12;;;;;;;42.63;24.73;;;11.60;99.90;;;;;;4991662;28;20057;-81
2023/05/12 03:08:38;;;;;;;47.92;26.73;;;13.30;99.90;;;;;;5008385;28;20072;-81
2023/05/12 03:11:03;;;;;;;42.67;25.45;;;11.60;99.90;;;;;;5006992;28;20049;-81
2023/05/12 03:13:30;;;;;;;42.50;24.05;;;12.70;99.90;;;;;;4991953;28;20512;-81
2023/05/12 03:16:00;;;;;;;49.58;26.75;;;13.30;99.90;;;;;;5010083;28;20488;-81
2023/05/12 03:18:26;;;;;;;46.92;25.08;;;13.20;99.90;;;;;;4991590;28;20095;-82
2023/05/12 03:20:52;;;;;;;51.08;26.33;;;11.60;99.90;;;;;;4992250;28;20046;-82
2023/05/12 03:23:17;;;;;;;48.45;24.35;;;12.50;99.90;;;;;;5010976;28;20046;-82
2023/05/12 03:25:43;;;;;;;43.47;23.52;;;12.90;99.90;;;;;;5011632;28;20049;-81
2023/05/12 03:28:09;;;;;;;43.80;24.88;;;11.60;99.90;;;;;;5011701;28;20072;-82
2023/05/12 03:30:35;;;;;;;50.88;25.58;;;13.20;99.90;;;;;;4994022;28;20049;-80
2023/05/12 03:33:00;;;;;;;46.42;23.60;;;12.40;99.90;;;;;;5012754;28;20034;-81
2023/05/12 03:35:26;;;;;;;48.85;24.90;;;11.70;99.90;;;;;;4995250;28;20052;-82
2023/05/12 03:37:51;;;;;;;52.10;24.67;;;12.40;99.90;;;;;;5011130;28;20077;-81
2023/05/12 03:40:17;;;;;;;47.47;25.77;;;11.60;99.90;;;;;;5012385;28;20088;-81
2023/05/12 03:42:44;;;;;;;46.38;23.58;;;12.70;99.90;;;;;;4994736;28;20037;-81
2023/05/12 03:45:10;;;;;;;42.50;24.80;;;11.70;99.90;;;;;;5012263;28;20034;-82
2023/05/12 03:47:36;;;;;;;45.42;24.60;;;11.60;99.90;;;;;;5011230;28;20092;-82
2023/05/12 03:50:03;;;;;;;41.97;23.67;;;11.80;99.90;;;;;;4995308;28;20038;-82
2023/05/12 03:52:28;;;;;;;47.08;23.80;;;11.70;99.90;;;;;;4995001;28;20044;-82
2023/05/12 03:54:54;;;;;;;49.22;25.42;;;11.60;99.90;;;;;;5012746;28;20038;-82
2023/05/12 03:57:20;;;;;;;42.13;23.70;;;11.70;99.90;;;;;;5027972;28;20485;-81
2023/05/12 03:59:45;;;;;;;43.42;25.30;;;11.70;99.90;;;;;;4994016;28;20497;-81
2023/05/12 04:02:11;;;;;;;42.55;23.50;;;11.70;99.90;;;;;;4994692;28;20037;-81
2023/05/12 04:04:37;;;;;;;37.08;22.70;;;11.70;99.90;;;;;;4995324;28;20069;-82
2023/05/12 04:07:03;;;;;;;44.38;23.65;;;11.70;99.90;;;;;;5011174;28;20120;-82
2023/05/12 04:09:33;;;;;;;40.28;23.83;;;11.70;99.90;;;;;;5010565;28;20038;-82
2023/05/12 04:11:59;;;;;;;48.40;25.48;;;11.70;99.90;;;;;;5004282;28;20030;-82
2023/05/12 04:14:25;;;;;;;39.58;24.40;;;11.70;99.90;;;;;;5002160;28;20034;-82
2023/05/12 04:16:51;;;;;;;47.45;25.67;;;11.70;99.90;;;;;;5002037;28;20045;-82
2023/05/12 04:19:16;;;;;;;41.53;27.27;;;11.70;99.90;;;;;;4998240;28;20096;-82
2023/05/12 04:21:42;;;;;;;50.03;25.98;;;13.20;99.90;;;;;;5000282;28;20047;-81
2023/05/12 04:24:08;;;;;;;42.10;24.33;;;13.70;99.90;;;;;;4986470;28;20138;-82
2023/05/12 04:26:34;;;;;;;43.13;25.05;;;13.70;99.90;;;;;;5001409;28;20044;-81
2023/05/12 04:29:00;;;;;;;45.60;25.00;;;11.80;99.90;;;;;;4999142;28;20047;-82
2023/05/12 04:31:26;;;;;;;41.45;25.40;;;13.00;99.90;;;;;;4999017;28;20394;-82
2023/05/12 04:33:51;;;;;;;44.13;24.10;;;11.80;99.90;;;;;;5001793;28;20042;-82
2023/05/12 04:36:17;;;;;;;49.25;26.25;;;11.80;99.90;;;;;;5002093;28;20095;-81
2023/05/12 04:38:42;;;;;;;41.95;25.08;;;11.80;99.90;;;;;;4984727;28;20038;-82
2023/05/12 04:41:08;;;;;;;40.58;25.20;;;13.50;99.90;;;;;;4981359;28;20046;-83
2023/05/12 04:43:34;;;;;;;46.90;27.02;;;12.90;99.90;;;;;;5000178;28;20034;-82
2023/05/12 04:46:00;;;;;;;42.53;26.15;;;11.80;99.90;;;;;;5001948;28;20532;-82
2023/05/12 04:48:26;;;;;;;43.33;26.67;;;12.00;99.90;;;;;;5001894;28;20042;-82
2023/05/12 04:50:51;;;;;;;48.22;26.77;;;11.70;99.90;;;;;;5001046;28;20046;-82
2023/05/12 04:53:17;;;;;;;40.38;25.33;;;13.20;99.90;;;;;;4982435;28;20037;-82
2023/05/12 04:55:44;;;;;;;49.63;25.83;;;11.90;99.90;;;;;;4982674;28;20042;-82
2023/05/12 04:58:13;;;;;;;48.38;27.40;;;11.90;99.90;;;;;;5001961;28;20427;-82
2023/05/12 05:00:39;;;;;;;44.08;26.08;;;13.30;99.90;;;;;;5001099;28;20587;-82
2023/05/12 05:03:05;;;;;;;47.70;27.33;;;11.90;99.90;;;;;;5017529;28;20042;-82
2023/05/12 05:05:31;;;;;;;43.70;27.13;;;13.90;99.90;;;;;;4985909;28;20042;-81
2023/05/12 05:07:57;;;;;;;48.85;27.92;;;12.80;99.90;;;;;;4999127;28;20056;-81
2023/05/12 05:10:22;;;;;;;45.30;26.83;;;12.00;99.90;;;;;;4997107;28;20449;-82
2023/05/12 05:12:48;;;;;;;47.33;28.20;;;12.00;99.90;;;;;;5000541;28;20107;-82
2023/05/12 05:15:14;;;;;;;52.20;29.63;;;12.90;99.90;;;;;;5003567;28;20033;-81
2023/05/12 05:17:41;;;;;;;59.53;32.45;;;12.00;99.90;;;;;;4983599;28;20056;-81
2023/05/12 05:20:07;;;;;;;54.20;30.67;;;12.00;99.90;;;;;;4983550;28;20060;-81
2023/05/12 05:22:33;;;;;;;48.67;28.42;;;12.00;99.90;;;;;;5000730;28;20045;-81
2023/05/12 05:24:59;;;;;;;48.47;29.38;;;12.00;99.90;;;;;;4999954;28;20042;-82
2023/05/12 05:27:25;;;;;;;47.13;26.63;;;11.90;99.90;;;;;;4998304;28;20103;-82
2023/05/12 05:29:51;;;;;;;52.92;29.15;;;12.90;99.90;;;;;;4982456;28;20051;-82
2023/05/12 05:32:17;;;;;;;45.72;26.48;;;12.10;99.90;;;;;;5002488;28;20453;-82
2023/05/12 05:34:42;;;;;;;44.35;27.50;;;12.40;99.90;;;;;;5002141;28;20046;-81
2023/05/12 05:37:08;;;;;;;51.25;26.00;;;12.10;99.90;;;;;;4998228;28;20038;-82
2023/05/12 05:39:34;;;;;;;46.05;29.05;;;12.80;99.90;;;;;;4997648;28;20054;-82
2023/05/12 05:41:59;;;;;;;42.03;27.48;;;12.10;99.90;;;;;;5001500;28;20046;-82
2023/05/12 05:44:25;;;;;;;51.88;28.45;;;13.70;99.90;;;;;;5001281;28;20390;-82
2023/05/12 05:46:51;;;;;;;55.53;35.40;;;12.10;99.90;;;;;;4996163;28;20049;-82
2023/05/12 05:49:16;;;;;;;49.95;31.80;;;12.10;99.90;;;;;;5001207;28;20383;-82
2023/05/12 05:51:43;;;;;;;47.75;29.30;;;12.20;99.90;;;;;;4996587;28;20089;-82
2023/05/12 05:54:08;;;;;;;42.30;27.05;;;12.10;99.90;;;;;;5000995;28;20121;-82
2023/05/12 05:56:34;;;;;;;42.78;26.25;;;12.10;99.90;;;;;;5000961;28;20117;-82
2023/05/12 05:59:03;;;;;;;44.17;28.20;;;12.20;99.90;;;;;;4998506;28;20498;-82
2023/05/12 06:01:29;;;;;;;42.22;28.90;;;12.20;99.90;;;;;;4997101;28;20039;-82
2023/05/12 06:03:55;;;;;;;47.15;29.52;;;13.50;99.90;;;;;;4982395;28;20038;-82
2023/05/12 06:06:21;;;;;;;43.45;27.02;;;12.70;99.90;;;;;;5001301;28;20574;-81
2023/05/12 06:08:46;;;;;;;47.50;28.42;;;14.30;99.90;;;;;;4983751;28;20048;-82
2023/05/12 06:11:12;;;;;;;48.40;29.35;;;12.20;99.90;;;;;;4998369;28;20097;-82
2023/05/12 06:13:37;;;;;;;40.22;27.33;;;14.30;99.90;;;;;;4998519;28;20149;-82
2023/05/12 06:16:04;;;;;;;48.25;30.05;;;14.00;99.90;;;;;;5001077;28;20048;-83
2023/05/12 06:18:32;;;;;;;37.53;26.35;;;12.20;99.90;;;;;;5001787;28;20124;-80
2023/05/12 06:20:58;;;;;;;49.05;30.20;;;13.70;99.90;;;;;;4997365;28;20038;-80
2023/05/12 06:23:24;;;;;;;45.67;28.83;;;12.30;99.90;;;;;;4997222;28;20057;-80
2023/05/12 06:25:49;;;;;;;49.88;30.25;;;12.30;99.90;;;;;;4981326;28;20094;-80
2023/05/12 06:28:15;;;;;;;45.92;29.75;;;14.50;99.90;;;;;;5000276;28;20405;-80
2023/05/12 06:30:41;;;;;;;46.65;29.45;;;13.50;99.90;;;;;;5001291;28;20069;-80
2023/05/12 06:33:06;;;;;;;48.63;28.65;;;12.40;99.90;;;;;;4996467;28;20548;-81
2023/05/12 06:35:32;;;;;;;46.60;27.67;;;12.40;99.90;;;;;;4998281;28;20096;-81
2023/05/12 06:37:58;;;;;;;50.28;28.52;;;12.40;99.90;;;;;;4999789;28;20050;-81
2023/05/12 06:40:23;;;;;;;45.50;28.42;;;12.50;99.90;;;;;;4999093;28;20038;-81
2023/05/12 06:42:49;;;;;;;44.45;30.05;;;12.50;99.90;;;;;;4999558;28;20061;-80
2023/05/12 06:45:14;;;;;;;42.17;27.80;;;12.50;99.90;;;;;;4998230;28;20046;-80
2023/05/12 06:47:40;;;;;;;44.58;27.77;;;12.60;99.90;;;;;;4996038;28;20038;-81
2023/05/12 06:50:07;;;;;;;47.05;28.55;;;12.60;99.90;;;;;;4999287;28;20046;-80
2023/05/12 06:52:33;;;;;;;46.13;28.02;;;12.60;99.90;;;;;;5000141;28;20049;-81
2023/05/12 06:54:58;;;;;;;39.17;27.02;;;12.70;99.90;;;;;;4997825;28;20038;-81
2023/05/12 06:57:24;;;;;;;40.55;27.17;;;12.70;99.90;;;;;;4999921;28;20412;-81
2023/05/12 06:59:50;;;;;;;46.42;28.08;;;12.70;99.90;;;;;;5001298;28;20054;-80
2023/05/12 07:02:15;;;;;;;45.30;28.00;;;12.80;99.90;;;;;;4986568;28;20046;-80
2023/05/12 07:04:41;;;;;;;45.72;29.52;;;12.80;99.90;;;;;;5020421;28;20046;-80
2023/05/12 07:07:07;;;;;;;50.17;29.80;;;12.80;99.90;;;;;;5000890;28;20073;-81
2023/05/12 07:09:32;;;;;;;48.60;30.23;;;12.90;99.90;;;;;;4999831;28;20046;-80
2023/05/12 07:11:59;;;;;;;47.78;28.77;;;12.90;99.90;;;;;;5003096;28;20034;-80
2023/05/12 07:14:25;;;;;;;49.45;30.02;;;13.00;99.90;;;;;;5004067;28;20397;-81
2023/05/12 07:16:50;;;;;;;43.92;29.42;;;12.90;99.90;;;;;;5003167;28;20045;-81
2023/05/12 07:19:16;;;;;;;47.30;29.65;;;13.00;99.90;;;;;;4999877;28;20121;-81
2023/05/12 07:21:42;;;;;;;45.30;29.45;;;13.00;99.90;;;;;;4983818;28;20133;-80
2023/05/12 07:24:08;;;;;;;42.63;27.67;;;13.00;99.90;;;;;;5003639;28;20093;-81
2023/05/12 07:26:34;;;;;;;46.05;29.63;;;13.00;99.90;;;;;;5004869;28;20867;-80
2023/05/12 07:29:01;;;;;;;43.65;29.20;;;13.10;99.90;;;;;;5003061;28;20117;-80
2023/05/12 07:31:27;;;;;;;49.30;29.70;;;13.50;99.90;;;;;;4999249;28;20117;-81
2023/05/12 07:33:53;;;;;;;43.40;30.13;;;14.10;99.90;;;;;;4984587;28;20039;-81
2023/05/12 07:36:19;;;;;;;44.55;29.58;;;13.20;99.90;;;;;;4986497;28;20096;-82
2023/05/12 07:38:44;;;;;;;45.03;30.85;;;13.20;99.90;;;;;;5004294;28;20502;-81
2023/05/12 07:41:10;;;;;;;42.95;30.70;;;14.20;99.90;;;;;;5001531;28;20050;-80
2023/05/12 07:43:36;;;;;;;54.05;32.80;;;14.60;99.90;;;;;;5001072;28;20094;-80
2023/05/12 07:46:02;;;;;;;48.60;30.75;;;14.50;99.90;;;;;;5001506;28;20046;-80
2023/05/12 07:48:27;;;;;;;48.45;33.35;;;13.30;99.90;;;;;;5003985;28;20092;-79
2023/05/12 07:50:53;;;;;;;49.03;32.28;;;13.30;99.90;;;;;;5001983;28;20045;-81
2023/05/12 07:53:19;;;;;;;45.70;32.67;;;13.40;99.90;;;;;;4999797;28;20109;-79
2023/05/12 07:55:45;;;;;;;48.47;32.97;;;13.10;99.90;;;;;;4983641;28;20086;-80
2023/05/12 07:58:11;;;;;;;50.95;35.97;;;13.50;99.90;;;;;;5001668;28;20043;-80
2023/05/12 08:00:37;;;;;;;52.20;35.15;;;13.70;99.90;;;;;;5003969;28;20342;-81
2023/05/12 08:03:04;;;;;;;51.75;36.35;;;13.60;99.90;;;;;;5002731;28;20042;-81
2023/05/12 08:05:30;;;;;;;55.10;36.67;;;15.10;99.90;;;;;;4998780;28;20505;-80
2023/05/12 08:07:55;;;;;;;48.85;33.30;;;13.80;99.90;;;;;;4998772;28;20054;-80
2023/05/12 08:10:25;;;;;;;46.13;34.97;;;13.80;99.90;;;;;;5002750;28;20053;-80
2023/05/12 08:12:51;;;;;;;50.65;34.60;;;14.00;99.90;;;;;;4986203;28;20041;-81
2023/05/12 08:15:16;;;;;;;45.60;34.15;;;14.20;99.90;;;;;;4999418;28;20402;-80
2023/05/12 08:17:42;;;;;;;53.47;35.47;;;14.50;99.90;;;;;;5000596;28;20078;-81
2023/05/12 08:20:08;;;;;;;47.40;34.72;;;14.20;99.90;;;;;;4983562;28;20061;-80
2023/05/12 08:22:34;;;;;;;43.60;33.78;;;14.30;99.90;;;;;;5003707;28;20124;-79
2023/05/12 08:24:59;;;;;;;50.65;35.28;;;14.30;99.90;;;;;;5001366;28;20520;-81
2023/05/12 08:27:25;;;;;;;48.10;37.03;;;15.30;99.90;;;;;;4998415;28;20046;-81
2023/05/12 08:29:50;;;;;;;52.97;37.90;;;14.50;99.90;;;;;;5000116;28;20181;-80
2023/05/12 08:32:16;;;;;;;51.63;37.67;;;14.90;99.90;;;;;;5001883;28;20046;-81
2023/05/12 08:34:42;;;;;;;47.42;35.42;;;14.70;99.90;;;;;;5002740;28;20042;-81
2023/05/12 08:37:07;;;;;;;47.08;35.95;;;14.80;99.90;;;;;;5002208;28;20111;-80
2023/05/12 08:39:33;;;;;;;48.80;37.65;;;14.80;99.90;;;;;;4999245;28;20046;-80
2023/05/12 08:42:26;;;;;;;45.28;35.35;;;14.90;99.90;;;;;;5000563;28;20042;-81
2023/05/12 08:44:53;;;;;;;50.92;36.42;;;15.00;99.90;;;;;;5003684;28;20467;-80
2023/05/12 08:47:21;;;;;;;45.40;36.30;;;15.10;99.90;;;;;;4999589;28;20101;-82
2023/05/12 08:50:02;;;;;;;42.65;34.20;;;15.10;99.90;;;;;;4998884;28;20047;-81
2023/05/12 08:52:34;;;;;;;39.97;33.20;;;15.20;99.90;;;;;;5002903;28;20447;-82
2023/05/12 08:55:01;;;;;;;36.78;31.48;;;15.20;99.90;;;;;;5009093;28;20038;-81
2023/05/12 08:57:26;;;;;;;39.35;32.65;;;15.40;99.90;;;;;;5009946;28;20093;-81
2023/05/12 08:59:55;;;;;;;39.28;32.08;;;15.40;99.90;;;;;;5009477;28;20517;-81
2023/05/12 09:02:24;;;;;;;39.63;32.10;;;15.50;99.90;;;;;;4992914;28;20049;-81
2023/05/12 09:04:51;;;;;;;35.90;30.45;;;15.60;99.90;;;;;;4994026;28;20046;-82
2023/05/12 09:07:18;;;;;;;32.95;29.35;;;15.70;99.90;;;;;;4993618;28;20077;-81
2023/05/12 09:09:47;;;;;;;33.22;29.42;;;15.70;99.90;;;;;;5010393;28;20133;-81
2023/05/12 09:12:16;;;;;;;31.80;28.50;;;15.80;99.90;;;;;;5009641;28;20080;-81
2023/05/12 09:14:44;;;;;;;30.88;26.55;;;15.90;99.90;;;;;;5009322;28;20034;-81
2023/05/12 09:17:11;;;;;;;32.80;28.48;;;16.30;99.90;;;;;;5009928;28;20160;-82
2023/05/12 09:19:37;;;;;;;29.75;26.55;;;16.00;99.90;;;;;;4992894;28;20398;-82
2023/05/12 09:22:03;;;;;;;29.30;26.30;;;16.20;99.90;;;;;;4992456;28;20045;-81
2023/05/12 09:24:47;;;;;;;32.83;26.73;;;16.20;99.90;;;;;;5009736;28;20045;-82
2023/05/12 09:27:23;;;;;;;30.90;27.25;;;17.50;99.90;;;;;;5010133;28;20054;-82
2023/05/12 09:29:49;;;;;;;32.40;28.70;;;16.30;99.90;;;;;;4993059;28;20504;-82
2023/05/12 09:32:14;;;;;;;31.08;27.92;;;16.40;99.90;;;;;;4993020;28;20045;-81
2023/05/12 09:34:41;;;;;;;30.08;26.83;;;16.80;99.90;;;;;;5010172;28;20042;-81
2023/05/12 09:37:07;;;;;;;28.83;25.75;;;16.50;99.90;;;;;;5009546;28;20121;-81
2023/05/12 09:39:33;;;;;;;29.42;25.27;;;16.60;99.90;;;;;;4993896;28;20152;-81
2023/05/12 09:41:59;;;;;;;26.98;23.98;;;16.60;99.90;;;;;;5009046;28;20092;-81
2023/05/12 09:44:27;;;;;;;27.67;24.42;;;16.70;99.90;;;;;;5000723;28;20034;-81
2023/05/12 09:46:53;;;;;;;27.60;22.83;;;16.70;99.90;;;;;;5009502;28;20073;-81
2023/05/12 09:49:20;;;;;;;26.67;24.05;;;17.60;99.90;;;;;;5009081;28;20552;-82
2023/05/12 09:51:46;;;;;;;26.80;24.05;;;16.80;99.90;;;;;;5008341;28;20046;-81
2023/05/12 09:54:12;;;;;;;25.20;22.58;;;17.60;99.90;;;;;;5009023;28;20140;-82
2023/05/12 09:56:39;;;;;;;24.80;20.65;;;17.20;99.90;;;;;;5008971;28;20049;-82
2023/05/12 09:59:05;;;;;;;24.40;21.88;;;17.00;99.90;;;;;;5009166;28;20046;-82
2023/05/12 10:01:31;;;;;;;24.88;22.30;;;17.10;99.90;;;;;;4991963;28;20034;-82
2023/05/12 10:03:58;;;;;;;20.88;18.75;;;17.10;99.90;;;;;;5008208;28;20100;-81
2023/05/12 10:06:25;;;;;;;19.85;17.85;;;17.20;99.90;;;;;;5008362;28;20486;-81
2023/05/12 10:09:21;;;;;;;20.52;18.42;;;17.30;99.90;;;;;;5010537;28;20490;-81
2023/05/12 10:11:48;;;;;;;22.15;19.88;;;17.40;99.90;;;;;;5004006;28;20176;-82
2023/05/12 10:14:16;;;;;;;20.67;18.60;;;17.50;99.90;;;;;;5010485;28;20428;-82
2023/05/12 10:16:48;;;;;;;21.20;18.58;;;17.50;99.90;;;;;;5010103;28;20119;-81
2023/05/12 10:19:14;;;;;;;21.88;18.67;;;17.50;99.90;;;;;;5007790;28;20068;-82
2023/05/12 10:21:44;;;;;;;21.98;19.70;;;18.80;99.90;;;;;;5008817;28;20088;-81
2023/05/12 10:24:13;;;;;;;20.92;18.58;;;17.70;99.90;;;;;;5009858;28;20054;-81
2023/05/12 10:26:39;;;;;;;21.33;19.25;;;17.70;99.90;;;;;;5008331;28;20034;-81
2023/05/12 10:29:05;;;;;;;20.75;18.17;;;17.80;99.90;;;;;;5008247;28;20050;-83
2023/05/12 10:31:32;;;;;;;22.50;20.23;;;17.90;99.90;;;;;;4991191;28;20076;-81
2023/05/12 10:33:59;;;;;;;21.27;18.65;;;17.90;99.90;;;;;;5009114;28;20068;-82
2023/05/12 10:36:25;;;;;;;20.88;18.63;;;18.00;99.90;;;;;;5008491;28;20402;-81
2023/05/12 10:38:51;;;;;;;22.45;17.58;;;17.90;99.90;;;;;;4993672;28;20057;-81
2023/05/12 10:41:31;;;;;;;21.75;19.10;;;18.90;99.90;;;;;;4991815;28;20084;-82
2023/05/12 10:43:57;;;;;;;23.55;18.60;;;18.10;99.90;;;;;;5008850;28;20129;-81
2023/05/12 10:46:25;;;;;;;21.27;19.13;;;18.10;99.90;;;;;;5008667;28;20559;-81
2023/05/12 10:48:55;;;;;;;19.30;17.42;;;18.20;99.90;;;;;;5009129;28;20045;-82
2023/05/12 10:51:27;;;;;;;20.08;17.75;;;18.30;99.90;;;;;;5010222;28;20037;-82
2023/05/12 10:53:57;;;;;;;20.52;18.08;;;18.40;99.90;;;;;;5010365;28;20045;-81
2023/05/12 10:56:26;;;;;;;17.90;16.00;;;18.50;99.90;;;;;;5009004;28;20073;-81
2023/05/12 10:59:19;;;;;;;16.35;14.07;;;18.80;99.90;;;;;;5008578;28;20050;-80
2023/05/12 11:02:05;;;;;;;16.60;14.10;;;18.70;99.90;;;;;;5001702;28;20042;-81
2023/05/12 11:04:56;;;;;;;12.05;10.82;;;18.90;99.90;;;;;;4992825;28;20045;-81
2023/05/12 11:07:28;;;;;;;13.80;11.82;;;19.10;99.90;;;;;;4991579;28;20068;-81
2023/05/12 11:09:55;;;;;;;11.43;10.30;;;19.10;99.90;;;;;;5010143;28;20140;-82
2023/05/12 11:12:22;;;;;;;11.13;10.10;;;19.20;99.90;;;;;;5010004;28;20050;-81
2023/05/12 11:14:48;;;;;;;12.55;11.27;;;19.30;99.90;;;;;;4992749;28;20042;-82
2023/05/12 11:17:14;;;;;;;13.35;12.05;;;19.40;99.90;;;;;;4992444;28;20412;-82
2023/05/12 11:19:45;;;;;;;12.15;10.35;;;19.50;99.90;;;;;;4991964;28;20056;-82
2023/05/12 11:22:11;;;;;;;10.73;9.73;;;19.70;99.90;;;;;;4992038;28;20037;-83
2023/05/12 11:24:38;;;;;;;11.20;9.45;;;19.80;99.90;;;;;;4984150;28;20140;-82
2023/05/12 11:27:05;;;;;;;11.55;10.45;;;19.90;99.90;;;;;;4984307;28;20046;-81
2023/05/12 11:29:31;;;;;;;10.75;9.65;;;20.00;99.90;;;;;;4997066;28;20050;-82
2023/05/12 11:31:59;;;;;;;11.23;10.05;;;20.00;99.90;;;;;;4998240;28;20215;-82
2023/05/12 11:34:26;;;;;;;14.10;9.00;;;20.10;99.90;;;;;;4982213;28;20085;-82
2023/05/12 11:36:53;;;;;;;11.23;8.07;;;20.10;99.90;;;;;;5033068;28;20042;-82
2023/05/12 11:39:25;;;;;;;12.07;8.02;;;20.20;99.90;;;;;;5000616;28;20038;-83
2023/05/12 11:41:52;;;;;;;12.15;8.90;;;20.20;99.90;;;;;;4997684;28;20473;-81
2023/05/12 11:44:20;;;;;;;9.35;7.35;;;21.50;99.90;;;;;;5000438;28;20130;-83
2023/05/12 11:47:02;;;;;;;11.30;9.52;;;21.40;99.90;;;;;;5005616;28;20038;-82
2023/05/12 11:49:29;;;;;;;12.60;9.68;;;20.70;99.90;;;;;;5002419;28;20041;-81
2023/05/12 11:51:57;;;;;;;9.80;8.85;;;20.80;99.90;;;;;;5000768;28;20052;-81
2023/05/12 11:54:24;;;;;;;11.45;9.00;;;21.00;99.90;;;;;;5010086;28;20172;-82
2023/05/12 11:56:54;;;;;;;12.68;10.35;;;21.20;99.90;;;;;;5000634;28;20054;-82
2023/05/12 11:59:27;;;;;;;7.78;7.07;;;21.20;99.90;;;;;;5001040;28;20494;-81
2023/05/12 12:01:52;;;;;;;9.20;8.32;;;21.30;99.90;;;;;;4987456;28;20045;-82
2023/05/12 12:04:18;;;;;;;10.05;8.48;;;21.50;99.90;;;;;;5004570;28;20397;-81
2023/05/12 12:06:44;;;;;;;8.95;7.35;;;21.60;99.90;;;;;;5001356;28;20046;-81
2023/05/12 12:09:11;;;;;;;7.80;7.05;;;21.70;99.90;;;;;;5000287;28;20054;-83
2023/05/12 12:11:37;;;;;;;7.18;6.45;;;21.80;99.90;;;;;;5001960;28;20513;-83
2023/05/12 12:14:03;;;;;;;5.60;4.57;;;21.90;99.90;;;;;;4999586;28;20046;-82
2023/05/12 12:16:30;;;;;;;6.10;4.55;;;22.10;99.90;;;;;;5000750;28;20039;-82
2023/05/12 12:18:56;;;;;;;4.13;3.72;;;22.20;99.90;;;;;;4985216;28;20049;-81
2023/05/12 12:21:24;;;;;;;6.25;4.40;;;22.20;99.90;;;;;;4985670;28;20108;-82
2023/05/12 12:23:50;;;;;;;4.30;4.00;;;22.30;99.90;;;;;;4999784;28;20046;-82
2023/05/12 12:26:19;;;;;;;5.88;4.13;;;22.40;99.90;;;;;;4999881;28;20117;-83